createdAt,value
2022-08-22T00:00:09.800Z,18.09
2022-08-22T00:02:58.681Z,19.29
2022-08-22T00:02:58.750Z,19.09
2022-08-22T00:03:04.029Z,20.71
2022-08-22T00:03:10.730Z,18.41
2022-08-22T00:03:15.396Z,17.99
2022-08-22T00:05:44.509Z,17.92
2022-08-22T00:08:19.812Z,17.78
2022-08-22T00:10:57.829Z,17.69
2022-08-22T00:13:33.816Z,17.80
2022-08-22T00:16:10.001Z,17.82
2022-08-22T00:18:43.650Z,17.68
2022-08-22T00:21:15.556Z,17.66
2022-08-22T00:23:52.573Z,17.51
2022-08-22T00:26:33.799Z,17.39
2022-08-22T00:29:05.234Z,17.25
2022-08-22T00:31:40.285Z,17.19
2022-08-22T00:34:13.172Z,17.18
2022-08-22T00:36:47.954Z,17.24
2022-08-22T00:39:20.681Z,17.15
2022-08-22T00:42:06.812Z,17.22
2022-08-22T00:45:11.725Z,17.06
2022-08-22T00:47:52.704Z,17.21
2022-08-22T00:50:34.606Z,17.34
2022-08-22T00:53:26.655Z,17.29
2022-08-22T00:56:10.134Z,17.24
2022-08-22T00:59:18.026Z,17.49
2022-08-22T01:01:57.008Z,17.83
2022-08-22T01:04:48.534Z,17.76
2022-08-22T01:07:38.124Z,17.76
2022-08-22T01:10:22.773Z,17.72
2022-08-22T01:13:10.655Z,17.73
2022-08-22T01:15:42.376Z,17.70
2022-08-22T01:18:35.147Z,17.78
2022-08-22T01:21:38.344Z,17.73
2022-08-22T01:24:38.248Z,17.79
2022-08-22T01:27:57.551Z,17.68
2022-08-22T01:31:06.128Z,17.36
2022-08-22T01:34:19.163Z,17.31
2022-08-22T01:37:12.919Z,17.19
2022-08-22T01:40:00.723Z,17.10
2022-08-22T01:42:51.359Z,17.12
2022-08-22T01:45:49.565Z,17.27
2022-08-22T01:48:21.691Z,17.24
2022-08-22T01:50:54.827Z,17.24
2022-08-22T01:53:29.747Z,17.27
2022-08-22T01:56:08.572Z,17.36
2022-08-22T01:58:40.210Z,17.27
2022-08-22T02:01:21.253Z,17.22
2022-08-22T02:04:03.074Z,17.29
2022-08-22T02:06:46.497Z,17.32
2022-08-22T02:09:40.403Z,17.25
2022-08-22T02:12:26.130Z,17.22
2022-08-22T02:15:01.452Z,17.46
2022-08-22T02:17:32.664Z,17.62
2022-08-22T02:20:08.195Z,17.63
2022-08-22T02:22:52.667Z,17.56
2022-08-22T02:25:26.080Z,17.51
2022-08-22T02:28:00.006Z,17.29
2022-08-22T02:30:43.895Z,17.28
2022-08-22T02:33:16.704Z,17.12
2022-08-22T02:35:51.768Z,17.15
2022-08-22T02:38:30.338Z,17.03
2022-08-22T02:41:17.559Z,16.85
2022-08-22T02:43:49.775Z,16.73
2022-08-22T02:46:26.764Z,16.63
2022-08-22T02:49:04.025Z,16.59
2022-08-22T02:51:41.424Z,16.64
2022-08-22T02:54:18.846Z,16.52
2022-08-22T02:56:54.551Z,16.42
2022-08-22T02:59:34.029Z,16.34
2022-08-22T03:02:35.751Z,16.33
2022-08-22T03:05:17.592Z,16.22
2022-08-22T03:07:51.607Z,16.19
2022-08-22T03:10:24.016Z,16.20
2022-08-22T03:13:02.159Z,16.02
2022-08-22T03:15:37.122Z,16.08
2022-08-22T03:18:16.181Z,15.81
2022-08-22T03:20:48.912Z,15.94
2022-08-22T03:23:26.318Z,16.01
2022-08-22T03:26:07.696Z,16.10
2022-08-22T03:28:59.030Z,16.09
2022-08-22T03:31:30.621Z,15.89
2022-08-22T03:34:18.831Z,15.81
2022-08-22T03:36:48.939Z,15.67
2022-08-22T03:39:23.716Z,15.54
2022-08-22T03:42:09.299Z,15.55
2022-08-22T03:44:56.599Z,15.57
2022-08-22T03:47:49.864Z,15.67
2022-08-22T03:51:00.899Z,15.84
2022-08-22T03:54:06.284Z,15.64
2022-08-22T03:57:18.751Z,15.54
2022-08-22T04:00:18.367Z,15.30
2022-08-22T04:03:38.667Z,15.19
2022-08-22T04:06:36.725Z,15.22
2022-08-22T04:09:45.349Z,15.28
2022-08-22T04:12:28.661Z,15.31
2022-08-22T04:15:28.463Z,15.40
2022-08-22T04:18:19.327Z,15.68
2022-08-22T04:21:26.169Z,15.54
2022-08-22T04:24:15.330Z,15.27
2022-08-22T04:26:46.102Z,15.27
2022-08-22T04:29:20.633Z,15.34
2022-08-22T04:31:55.496Z,15.58
2022-08-22T04:34:32.069Z,15.47
2022-08-22T04:37:06.522Z,15.27
2022-08-22T04:39:41.045Z,15.13
2022-08-22T04:42:32.249Z,15.11
2022-08-22T04:45:06.816Z,15.19
2022-08-22T04:47:38.591Z,15.11
2022-08-22T04:50:14.882Z,15.06
2022-08-22T04:53:07.651Z,15.02
2022-08-22T04:55:47.684Z,14.87
2022-08-22T04:58:29.200Z,15.13
2022-08-22T05:01:04.646Z,15.13
2022-08-22T05:03:36.623Z,15.27
2022-08-22T05:06:08.795Z,15.59
2022-08-22T05:08:40.659Z,15.55
2022-08-22T05:11:11.407Z,15.57
2022-08-22T05:13:43.965Z,15.67
2022-08-22T05:16:18.553Z,16.05
2022-08-22T05:18:48.999Z,16.46
2022-08-22T05:21:23.649Z,16.57
2022-08-22T05:24:01.422Z,16.25
2022-08-22T05:26:35.321Z,15.89
2022-08-22T05:29:05.157Z,15.94
2022-08-22T05:31:39.862Z,16.26
2022-08-22T05:34:13.596Z,16.52
2022-08-22T05:36:45.224Z,16.46
2022-08-22T05:39:18.105Z,16.45
2022-08-22T05:41:46.891Z,16.55
2022-08-22T05:44:20.460Z,16.66
2022-08-22T05:46:52.616Z,16.66
2022-08-22T05:49:27.138Z,16.79
2022-08-22T05:52:08.753Z,17.03
2022-08-22T05:54:52.443Z,17.34
2022-08-22T05:57:28.853Z,18.34
2022-08-22T06:00:05.580Z,19.43
2022-08-22T06:02:52.104Z,20.57
2022-08-22T06:05:25.824Z,21.75
2022-08-22T06:08:00.813Z,22.84
2022-08-22T06:10:35.979Z,23.93
2022-08-22T06:13:11.716Z,25.08
2022-08-22T06:15:45.569Z,25.93
2022-08-22T06:18:22.130Z,27.07
2022-08-22T06:20:54.598Z,27.30
2022-08-22T06:23:27.807Z,28.01
2022-08-22T06:25:59.134Z,27.61
2022-08-22T06:28:31.000Z,28.38
2022-08-22T06:31:00.061Z,29.08
2022-08-22T06:33:30.424Z,29.45
2022-08-22T06:36:20.635Z,28.43
2022-08-22T06:39:03.207Z,27.67
2022-08-22T06:41:36.746Z,27.02
2022-08-22T06:44:07.179Z,26.28
2022-08-22T06:46:38.829Z,25.62
2022-08-22T06:49:09.212Z,25.89
2022-08-22T06:51:38.964Z,25.58
2022-08-22T06:54:12.748Z,25.60
2022-08-22T06:56:43.077Z,26.58
2022-08-22T06:59:15.147Z,27.47
2022-08-22T07:01:50.154Z,27.07
2022-08-22T07:04:19.268Z,26.30
2022-08-22T07:06:50.911Z,25.51
2022-08-22T07:09:24.818Z,24.71
2022-08-22T07:11:54.555Z,24.46
2022-08-22T07:14:29.572Z,24.06
2022-08-22T07:17:00.503Z,23.68
2022-08-22T07:19:30.495Z,23.62
2022-08-22T07:21:59.860Z,23.35
2022-08-22T07:24:32.949Z,23.08
2022-08-22T07:27:20.292Z,22.71
2022-08-22T07:29:54.143Z,22.67
2022-08-22T07:32:30.013Z,22.57
2022-08-22T07:35:08.120Z,22.63
2022-08-22T07:38:15.351Z,22.43
2022-08-22T07:40:50.778Z,22.60
2022-08-22T07:43:26.503Z,22.57
2022-08-22T07:45:57.835Z,22.61
2022-08-22T07:48:30.251Z,22.40
2022-08-22T07:51:02.686Z,22.05
2022-08-22T07:53:39.226Z,21.96
2022-08-22T07:56:13.552Z,21.57
2022-08-22T07:58:44.146Z,21.57
2022-08-22T08:01:18.032Z,21.78
2022-08-22T08:03:53.110Z,21.95
2022-08-22T08:06:23.170Z,22.05
2022-08-22T08:08:52.690Z,21.94
2022-08-22T08:11:23.747Z,21.82
2022-08-22T08:13:58.901Z,21.85
2022-08-22T08:16:29.864Z,21.85
2022-08-22T08:19:00.447Z,21.62
2022-08-22T08:21:31.614Z,21.71
2022-08-22T08:24:02.064Z,21.45
2022-08-22T08:26:36.517Z,21.53
2022-08-22T08:29:04.361Z,21.51
2022-08-22T08:31:38.099Z,21.62
2022-08-22T08:34:13.386Z,21.73
2022-08-22T08:36:51.509Z,21.75
2022-08-22T08:39:25.130Z,21.89
2022-08-22T08:42:27.547Z,22.04
2022-08-22T08:45:18.234Z,22.12
2022-08-22T08:48:18.186Z,22.15
2022-08-22T08:50:59.755Z,22.32
2022-08-22T08:53:58.521Z,22.40
2022-08-22T08:56:34.112Z,22.49
2022-08-22T08:59:14.312Z,22.71
2022-08-22T09:02:06.677Z,22.84
2022-08-22T09:05:02.872Z,23.24
2022-08-22T09:07:58.309Z,23.78
2022-08-22T09:10:46.129Z,24.31
2022-08-22T09:13:42.890Z,24.40
2022-08-22T09:16:34.737Z,24.84
2022-08-22T09:19:28.071Z,25.09
2022-08-22T09:22:50.074Z,25.45
2022-08-22T09:25:24.527Z,25.89
2022-08-22T09:27:59.696Z,25.29
2022-08-22T09:30:46.112Z,26.05
2022-08-22T09:33:31.855Z,26.78
2022-08-22T09:36:05.321Z,26.32
2022-08-22T09:41:41.263Z,26.30
2022-08-22T09:44:19.056Z,26.58
2022-08-22T09:46:57.518Z,26.89
2022-08-22T09:49:42.168Z,27.43
2022-08-22T09:52:33.113Z,27.46
2022-08-22T09:55:08.573Z,27.40
2022-08-22T09:57:41.312Z,27.12
2022-08-22T10:00:25.858Z,27.33
2022-08-22T10:03:05.408Z,27.68
2022-08-22T10:05:45.451Z,27.53
2022-08-22T10:08:49.203Z,27.27
2022-08-22T10:11:28.837Z,27.36
2022-08-22T10:14:02.289Z,28.23
2022-08-22T10:16:58.098Z,28.39
2022-08-22T10:19:31.956Z,27.74
2022-08-22T10:22:30.137Z,28.48
2022-08-22T10:25:22.587Z,28.16
2022-08-22T10:27:59.650Z,27.76
2022-08-22T10:30:32.506Z,28.09
2022-08-22T10:33:05.704Z,27.78
2022-08-22T10:35:38.789Z,27.37
2022-08-22T10:38:14.476Z,27.34
2022-08-22T10:40:53.232Z,27.26
2022-08-22T10:43:28.883Z,27.46
2022-08-22T10:46:03.610Z,26.72
2022-08-22T10:48:37.185Z,27.51
2022-08-22T10:51:18.675Z,28.05
2022-08-22T10:53:59.850Z,28.09
2022-08-22T10:56:35.177Z,27.26
2022-08-22T10:59:13.669Z,27.29
2022-08-22T11:01:52.366Z,27.76
2022-08-22T11:04:37.873Z,28.51
2022-08-22T11:07:19.143Z,27.85
2022-08-22T11:09:59.051Z,28.04
2022-08-22T11:12:35.012Z,28.57
2022-08-22T11:15:13.762Z,29.03
2022-08-22T11:18:07.108Z,30.36
2022-08-22T11:20:53.655Z,29.15
2022-08-22T11:23:32.559Z,31.15
2022-08-22T11:26:13.335Z,32.34
2022-08-22T11:29:15.131Z,31.55
2022-08-22T11:31:51.720Z,29.58
2022-08-22T11:34:35.607Z,30.64
2022-08-22T11:37:11.590Z,30.13
2022-08-22T11:39:48.008Z,30.44
2022-08-22T11:42:34.308Z,30.67
2022-08-22T11:45:05.982Z,30.23
2022-08-22T11:47:46.895Z,30.14
2022-08-22T11:50:22.709Z,29.50
2022-08-22T11:53:04.490Z,30.14
2022-08-22T11:55:41.721Z,31.36
2022-08-22T11:58:29.038Z,31.96
2022-08-22T12:01:02.381Z,32.65
2022-08-22T12:03:47.165Z,31.98
2022-08-22T12:06:56.224Z,32.50
2022-08-22T12:09:38.687Z,32.71
2022-08-22T12:12:21.399Z,32.98
2022-08-22T12:15:02.986Z,32.17
2022-08-22T12:18:01.080Z,30.53
2022-08-22T12:20:48.904Z,30.27
2022-08-22T12:23:49.362Z,30.48
2022-08-22T12:26:27.486Z,30.23
2022-08-22T12:29:05.465Z,30.01
2022-08-22T12:32:05.891Z,29.90
2022-08-22T12:34:46.248Z,31.47
2022-08-22T12:37:21.544Z,30.27
2022-08-22T12:40:09.488Z,29.47
2022-08-22T12:42:59.330Z,28.89
2022-08-22T12:45:40.496Z,29.08
2022-08-22T12:48:23.091Z,29.08
2022-08-22T12:50:57.142Z,29.08
2022-08-22T12:53:59.476Z,30.22
2022-08-22T12:56:42.739Z,31.46
2022-08-22T12:59:25.508Z,32.04
2022-08-22T13:01:56.508Z,31.66
2022-08-22T13:04:33.882Z,31.61
2022-08-22T13:07:17.403Z,30.85
2022-08-22T13:09:49.885Z,31.36
2022-08-22T13:12:26.273Z,31.80
2022-08-22T13:14:59.833Z,32.27
2022-08-22T13:17:28.126Z,31.98
2022-08-22T13:20:04.207Z,31.66
2022-08-22T13:22:35.952Z,32.09
2022-08-22T13:25:09.332Z,31.19
2022-08-22T13:27:51.330Z,31.19
2022-08-22T13:30:34.522Z,29.83
2022-08-22T13:33:09.598Z,29.78
2022-08-22T13:35:52.107Z,30.19
2022-08-22T13:38:25.728Z,29.98
2022-08-22T13:40:56.608Z,30.05
2022-08-22T13:43:29.656Z,29.93
2022-08-22T13:46:01.709Z,28.11
2022-08-22T13:48:47.001Z,28.73
2022-08-22T13:51:24.484Z,29.61
2022-08-22T13:54:01.831Z,29.76
2022-08-22T13:56:40.234Z,29.86
2022-08-22T13:59:47.180Z,29.64
2022-08-22T14:02:17.828Z,29.35
2022-08-22T14:04:48.608Z,29.39
2022-08-22T14:07:32.793Z,29.31
2022-08-22T14:10:06.600Z,28.26
2022-08-22T14:13:07.007Z,28.02
2022-08-22T14:15:44.842Z,27.94
2022-08-22T14:18:15.967Z,28.66
2022-08-22T14:20:48.338Z,28.72
2022-08-22T14:23:24.299Z,28.19
2022-08-22T14:25:56.216Z,28.39
2022-08-22T14:28:30.561Z,28.41
2022-08-22T14:31:03.323Z,28.60
2022-08-22T14:33:36.154Z,28.19
2022-08-22T14:36:15.606Z,28.33
2022-08-22T14:38:51.374Z,27.77
2022-08-22T14:41:52.898Z,27.46
2022-08-22T14:44:23.592Z,27.71
2022-08-22T14:46:56.362Z,27.82
2022-08-22T14:49:34.068Z,28.12
2022-08-22T14:52:10.295Z,28.38
2022-08-22T14:54:51.071Z,28.60
2022-08-22T14:57:20.391Z,28.39
2022-08-22T14:59:51.047Z,28.39
2022-08-22T15:02:26.165Z,28.02
2022-08-22T15:04:56.444Z,27.98
2022-08-22T15:07:26.999Z,28.28
2022-08-22T15:10:01.186Z,28.35
2022-08-22T15:12:36.508Z,28.42
2022-08-22T15:15:12.780Z,28.38
2022-08-22T15:17:44.414Z,28.29
2022-08-22T15:20:27.740Z,28.18
2022-08-22T15:22:58.352Z,27.98
2022-08-22T15:25:31.308Z,27.70
2022-08-22T15:28:05.239Z,27.84
2022-08-22T15:30:44.066Z,27.81
2022-08-22T15:33:17.134Z,27.91
2022-08-22T15:35:47.513Z,27.82
2022-08-22T15:38:36.459Z,27.62
2022-08-22T15:41:41.716Z,27.70
2022-08-22T15:44:31.122Z,27.70
2022-08-22T15:47:11.726Z,27.43
2022-08-22T15:49:55.604Z,27.77
2022-08-22T15:52:29.499Z,27.78
2022-08-22T15:55:18.481Z,27.71
2022-08-22T15:58:02.613Z,27.72
2022-08-22T16:00:35.895Z,27.55
2022-08-22T16:03:15.667Z,27.26
2022-08-22T16:05:55.191Z,27.33
2022-08-22T16:08:29.639Z,27.06
2022-08-22T16:11:21.284Z,26.98
2022-08-22T16:14:17.930Z,26.98
2022-08-22T16:17:01.009Z,26.83
2022-08-22T16:19:29.722Z,26.65
2022-08-22T16:22:10.705Z,26.63
2022-08-22T16:25:00.663Z,26.69
2022-08-22T16:27:28.947Z,26.58
2022-08-22T16:30:09.667Z,26.44
2022-08-22T16:32:37.797Z,26.38
2022-08-22T16:35:06.015Z,26.37
2022-08-22T16:37:57.876Z,26.34
2022-08-22T16:40:27.952Z,26.25
2022-08-22T16:43:16.259Z,26.21
2022-08-22T16:45:48.483Z,26.21
2022-08-22T16:48:33.322Z,26.22
2022-08-22T16:51:08.023Z,26.08
2022-08-22T16:54:12.028Z,26.11
2022-08-22T16:57:02.825Z,26.11
2022-08-22T16:59:48.894Z,26.02
2022-08-22T17:02:32.320Z,26.00
2022-08-22T17:05:15.464Z,25.97
2022-08-22T17:07:58.987Z,25.91
2022-08-22T17:10:47.239Z,25.79
2022-08-22T17:13:27.410Z,25.80
2022-08-22T17:16:09.832Z,25.79
2022-08-22T17:18:51.971Z,25.70
2022-08-22T17:21:26.120Z,25.62
2022-08-22T17:24:04.565Z,25.51
2022-08-22T17:26:50.871Z,25.43
2022-08-22T17:29:44.527Z,25.42
2022-08-22T17:32:21.684Z,25.36
2022-08-22T17:34:58.902Z,25.25
2022-08-22T17:37:38.219Z,25.19
2022-08-22T17:40:22.874Z,25.09
2022-08-22T17:43:23.707Z,25.05
2022-08-22T17:46:06.192Z,25.02
2022-08-22T17:48:48.105Z,24.92
2022-08-22T17:51:28.485Z,24.85
2022-08-22T17:54:01.999Z,24.77
2022-08-22T17:56:35.259Z,24.71
2022-08-22T17:59:07.907Z,24.65
2022-08-22T18:01:43.235Z,24.58
2022-08-22T18:04:18.619Z,24.46
2022-08-22T18:06:56.333Z,24.34
2022-08-22T18:09:32.327Z,24.27
2022-08-22T18:12:07.647Z,24.14
2022-08-22T18:14:45.151Z,24.05
2022-08-22T18:17:18.933Z,23.86
2022-08-22T18:19:56.378Z,23.78
2022-08-22T18:22:31.616Z,23.63
2022-08-22T18:25:04.684Z,23.52
2022-08-22T18:27:38.285Z,23.52
2022-08-22T18:30:16.436Z,23.39
2022-08-22T18:32:52.445Z,23.24
2022-08-22T18:35:25.668Z,23.14
2022-08-22T18:38:03.309Z,23.01
2022-08-22T18:40:52.686Z,22.93
2022-08-22T18:43:24.037Z,22.73
2022-08-22T18:46:03.807Z,22.63
2022-08-22T18:48:54.398Z,22.50
2022-08-22T18:51:31.456Z,22.36
2022-08-22T18:54:34.982Z,22.30
2022-08-22T18:57:24.533Z,22.15
2022-08-22T19:00:05.744Z,22.06
2022-08-22T19:02:57.716Z,22.05
2022-08-22T19:05:46.260Z,21.89
2022-08-22T19:08:36.391Z,21.78
2022-08-22T19:11:20.021Z,21.68
2022-08-22T19:14:09.125Z,21.59
2022-08-22T19:17:20.279Z,21.51
2022-08-22T19:20:18.212Z,21.43
2022-08-22T19:22:51.236Z,21.34
2022-08-22T19:25:25.952Z,21.24
2022-08-22T19:28:26.765Z,21.16
2022-08-22T19:31:22.661Z,21.08
2022-08-22T19:34:12.040Z,20.99
2022-08-22T19:36:40.009Z,20.90
2022-08-22T19:39:09.934Z,20.90
2022-08-22T19:41:43.832Z,20.92
2022-08-22T19:44:33.260Z,20.89
2022-08-22T19:47:08.352Z,20.82
2022-08-22T19:49:38.805Z,20.89
2022-08-22T19:52:19.218Z,20.94
2022-08-22T19:54:56.753Z,20.92
2022-08-22T19:57:35.556Z,20.87
2022-08-22T20:00:11.743Z,20.76
2022-08-22T20:02:56.710Z,20.77
2022-08-22T20:05:32.069Z,20.71
2022-08-22T20:08:11.992Z,20.59
2022-08-22T20:10:53.379Z,20.48
2022-08-22T20:13:24.612Z,20.36
2022-08-22T20:16:16.146Z,20.26
2022-08-22T20:19:14.388Z,20.18
2022-08-22T20:21:48.887Z,20.21
2022-08-22T20:24:22.303Z,20.21
2022-08-22T20:27:12.916Z,20.32
2022-08-22T20:29:47.205Z,20.32
2022-08-22T20:32:19.234Z,20.29
2022-08-22T20:34:48.560Z,20.35
2022-08-22T20:37:32.420Z,20.35
2022-08-22T20:40:53.361Z,20.25
2022-08-22T20:43:14.078Z,20.18
2022-08-22T20:46:03.657Z,20.14
2022-08-22T20:48:38.723Z,20.05
2022-08-22T20:51:09.258Z,20.03
2022-08-22T20:53:37.889Z,19.95
2022-08-22T20:56:08.089Z,19.94
2022-08-22T20:58:39.735Z,19.94
2022-08-22T21:01:11.321Z,19.91
2022-08-22T21:03:44.187Z,19.95
2022-08-22T21:06:14.983Z,20.07
2022-08-22T21:08:45.021Z,20.15
2022-08-22T21:11:39.229Z,20.35
2022-08-22T21:14:19.834Z,20.46
2022-08-22T21:16:48.056Z,20.53
2022-08-22T21:19:24.805Z,20.59
2022-08-22T21:21:53.113Z,20.66
2022-08-22T21:24:21.157Z,20.68
2022-08-22T21:26:52.726Z,20.76
2022-08-22T21:29:23.352Z,20.85
2022-08-22T21:31:59.296Z,20.86
2022-08-22T21:34:37.783Z,20.82
2022-08-22T21:37:09.584Z,20.79
2022-08-22T21:39:42.748Z,20.77
2022-08-22T21:42:12.711Z,20.71
2022-08-22T21:44:42.558Z,20.77
2022-08-22T21:47:30.427Z,20.80
2022-08-22T21:50:01.811Z,20.90
2022-08-22T21:52:31.027Z,20.99
2022-08-22T21:55:17.925Z,21.07
2022-08-22T21:57:45.912Z,21.20
2022-08-22T22:00:49.395Z,21.28
2022-08-22T22:03:20.521Z,21.30
2022-08-22T22:05:50.731Z,21.38
2022-08-22T22:08:18.720Z,21.30
2022-08-22T22:10:48.916Z,21.24
2022-08-22T22:13:17.631Z,21.19
2022-08-22T22:15:48.067Z,21.11
2022-08-22T22:18:18.277Z,21.08
2022-08-22T22:20:48.046Z,21.07
2022-08-22T22:23:17.942Z,21.00
2022-08-22T22:25:47.316Z,20.92
2022-08-22T22:28:17.867Z,20.83
2022-08-22T22:30:50.397Z,20.83
2022-08-22T22:33:18.833Z,20.79
2022-08-22T22:35:47.350Z,20.75
2022-08-22T22:38:21.846Z,20.73
2022-08-22T22:40:51.941Z,20.75
2022-08-22T22:43:20.311Z,20.68
2022-08-22T22:45:48.309Z,20.62
2022-08-22T22:48:24.496Z,20.56
2022-08-22T22:50:53.373Z,20.48
2022-08-22T22:53:33.710Z,20.45
2022-08-22T22:56:09.283Z,20.35
2022-08-22T22:58:37.588Z,20.34
2022-08-22T23:01:09.271Z,20.18
2022-08-22T23:03:37.216Z,20.15
2022-08-22T23:06:05.497Z,20.08
2022-08-22T23:08:34.768Z,20.00
2022-08-22T23:11:10.280Z,19.87
2022-08-22T23:13:39.746Z,19.84
2022-08-22T23:16:12.871Z,19.60
2022-08-22T23:18:41.078Z,19.53
2022-08-22T23:21:13.906Z,19.45
2022-08-22T23:23:43.420Z,19.39
2022-08-22T23:26:12.282Z,19.26
2022-08-22T23:28:40.561Z,19.11
2022-08-22T23:31:14.032Z,19.12
2022-08-22T23:33:41.989Z,19.15
2022-08-22T23:36:14.501Z,19.13
2022-08-22T23:38:44.330Z,19.16
2022-08-22T23:41:14.590Z,19.22
2022-08-22T23:43:44.730Z,19.18
2022-08-22T23:46:12.972Z,19.06
2022-08-22T23:48:41.059Z,19.02
2022-08-22T23:51:10.645Z,19.08
2022-08-22T23:53:39.440Z,19.19
2022-08-22T23:56:19.683Z,19.19
2022-08-22T23:58:49.131Z,19.16
